createdAt,value
2019-05-10T00:00:16.544Z,2.42
2019-05-10T00:03:03.973Z,2.20
2019-05-10T00:05:51.121Z,3.45
2019-05-10T00:08:38.488Z,2.40
2019-05-10T00:11:09.481Z,1.80
2019-05-10T00:13:58.318Z,2.83
2019-05-10T00:16:27.790Z,2.00
2019-05-10T00:18:57.435Z,2.95
2019-05-10T00:21:26.718Z,3.02
2019-05-10T00:23:55.986Z,2.20
2019-05-10T00:26:25.301Z,3.52
2019-05-10T00:28:54.570Z,2.55
2019-05-10T00:31:23.848Z,2.02
2019-05-10T00:33:53.146Z,2.77
2019-05-10T00:36:22.450Z,3.58
2019-05-10T00:38:51.736Z,2.40
2019-05-10T00:41:21.021Z,2.20
2019-05-10T00:43:50.247Z,2.00
2019-05-10T00:46:19.539Z,2.90
2019-05-10T00:48:48.761Z,3.02
2019-05-10T00:51:17.996Z,2.45
2019-05-10T00:53:47.338Z,2.83
2019-05-10T00:56:16.706Z,2.12
2019-05-10T00:58:45.949Z,2.40
2019-05-10T01:01:18.595Z,2.90
2019-05-10T01:03:46.144Z,3.45
2019-05-10T01:06:15.384Z,2.62
2019-05-10T01:08:44.676Z,2.37
2019-05-10T01:11:13.907Z,2.33
2019-05-10T01:13:43.139Z,2.33
2019-05-10T01:16:12.429Z,3.30
2019-05-10T01:18:41.660Z,3.55
2019-05-10T01:21:10.897Z,2.45
2019-05-10T01:23:40.179Z,2.33
2019-05-10T01:26:09.418Z,2.55
2019-05-10T01:28:38.653Z,2.58
2019-05-10T01:31:07.942Z,2.30
2019-05-10T01:33:37.170Z,2.20
2019-05-10T01:36:06.406Z,2.20
2019-05-10T01:38:35.662Z,2.87
2019-05-10T01:41:04.882Z,2.52
2019-05-10T01:43:34.145Z,2.52
2019-05-10T01:46:03.409Z,4.10
2019-05-10T01:48:32.681Z,2.55
2019-05-10T01:51:03.019Z,2.85
2019-05-10T01:53:32.272Z,2.85
2019-05-10T01:56:02.606Z,2.60
2019-05-10T01:58:31.863Z,2.95
2019-05-10T02:01:01.089Z,2.90
2019-05-10T02:03:30.355Z,2.45
2019-05-10T02:05:59.584Z,2.80
2019-05-10T02:08:28.956Z,2.27
2019-05-10T02:10:58.182Z,2.12
2019-05-10T02:13:27.418Z,2.37
2019-05-10T02:15:57.904Z,2.35
2019-05-10T02:18:27.137Z,2.72
2019-05-10T02:20:56.370Z,2.98
2019-05-10T02:23:25.634Z,2.33
2019-05-10T02:26:08.245Z,2.33
2019-05-10T02:28:25.760Z,2.50
2019-05-10T02:30:54.996Z,2.87
2019-05-10T02:33:24.273Z,2.33
2019-05-10T02:35:53.527Z,2.40
2019-05-10T02:38:22.768Z,2.17
2019-05-10T02:40:51.995Z,3.65
2019-05-10T02:43:21.304Z,2.35
2019-05-10T02:45:50.623Z,2.55
2019-05-10T02:48:19.925Z,2.83
2019-05-10T02:50:49.159Z,2.52
2019-05-10T02:53:18.519Z,3.10
2019-05-10T02:55:49.333Z,2.50
2019-05-10T02:58:18.764Z,2.98
2019-05-10T03:00:49.471Z,2.35
2019-05-10T03:03:20.155Z,3.08
2019-05-10T03:05:49.409Z,2.90
2019-05-10T03:08:18.670Z,3.08
2019-05-10T03:10:49.368Z,2.52
2019-05-10T03:13:20.434Z,1.90
2019-05-10T03:15:51.132Z,3.05
2019-05-10T03:18:21.867Z,2.20
2019-05-10T03:20:52.677Z,2.67
2019-05-10T03:23:22.313Z,2.40
2019-05-10T03:25:51.444Z,2.75
2019-05-10T03:28:20.699Z,3.65
2019-05-10T03:30:50.019Z,1.55
2019-05-10T03:33:19.318Z,2.98
2019-05-10T03:35:48.543Z,2.08
2019-05-10T03:38:17.783Z,2.25
2019-05-10T03:40:47.178Z,3.00
2019-05-10T03:43:16.397Z,2.00
2019-05-10T03:45:45.629Z,2.75
2019-05-10T03:48:14.936Z,2.17
2019-05-10T03:50:44.156Z,2.60
2019-05-10T03:53:13.396Z,4.65
2019-05-10T03:55:42.665Z,2.80
2019-05-10T03:58:11.889Z,3.15
2019-05-10T04:00:41.215Z,2.80
2019-05-10T04:03:10.443Z,2.75
2019-05-10T04:05:39.728Z,2.55
2019-05-10T04:08:08.954Z,3.17
2019-05-10T04:10:38.190Z,2.85
2019-05-10T04:13:07.492Z,2.40
2019-05-10T04:15:37.159Z,2.95
2019-05-10T04:18:06.395Z,3.62
2019-05-10T04:20:35.700Z,2.12
2019-05-10T04:23:04.924Z,2.17
2019-05-10T04:25:34.169Z,2.60
2019-05-10T04:28:03.428Z,2.90
2019-05-10T04:30:32.927Z,3.27
2019-05-10T04:33:02.148Z,3.00
2019-05-10T04:35:31.409Z,2.70
2019-05-10T04:38:01.675Z,3.17
2019-05-10T04:40:30.909Z,2.50
2019-05-10T04:43:00.232Z,2.17
2019-05-10T04:45:29.462Z,3.42
2019-05-10T04:47:58.713Z,2.12
2019-05-10T04:50:27.937Z,3.45
2019-05-10T04:52:57.179Z,2.75
2019-05-10T04:55:26.427Z,2.58
2019-05-10T04:57:55.682Z,3.90
2019-05-10T05:00:24.909Z,3.37
2019-05-10T05:02:54.223Z,3.10
2019-05-10T05:05:23.488Z,2.50
2019-05-10T05:07:52.730Z,2.75
2019-05-10T05:10:21.967Z,3.45
2019-05-10T05:12:51.228Z,3.62
2019-05-10T05:15:20.597Z,4.15
2019-05-10T05:17:49.835Z,4.37
2019-05-10T05:20:19.144Z,5.37
2019-05-10T05:22:48.431Z,4.83
2019-05-10T05:25:17.664Z,5.03
2019-05-10T05:27:48.167Z,5.67
2019-05-10T05:30:17.591Z,6.78
2019-05-10T05:32:46.864Z,6.55
2019-05-10T05:35:17.153Z,7.67
2019-05-10T05:37:46.465Z,8.00
2019-05-10T05:40:15.930Z,6.62
2019-05-10T05:42:45.160Z,7.70
2019-05-10T05:45:14.462Z,7.70
2019-05-10T05:47:45.155Z,7.70
2019-05-10T05:50:14.788Z,6.72
2019-05-10T05:52:44.059Z,8.60
2019-05-10T05:55:13.375Z,9.15
2019-05-10T05:57:42.746Z,8.05
2019-05-10T06:00:12.126Z,8.33
2019-05-10T06:02:45.048Z,8.30
2019-05-10T06:05:12.426Z,8.83
2019-05-10T06:07:41.665Z,7.60
2019-05-10T06:10:17.039Z,8.65
2019-05-10T06:12:44.459Z,7.15
2019-05-10T06:15:13.490Z,9.00
2019-05-10T06:17:42.760Z,8.48
2019-05-10T06:20:12.238Z,9.38
2019-05-10T06:22:45.584Z,7.58
2019-05-10T06:25:12.401Z,7.78
2019-05-10T06:27:43.265Z,7.25
2019-05-10T06:30:12.758Z,7.87
2019-05-10T06:32:42.038Z,7.15
2019-05-10T06:35:14.148Z,7.83
2019-05-10T06:37:42.296Z,7.95
2019-05-10T06:40:11.534Z,7.92
2019-05-10T06:42:41.811Z,8.63
2019-05-10T06:45:14.739Z,7.33
2019-05-10T06:47:47.137Z,9.03
2019-05-10T06:50:12.833Z,8.15
2019-05-10T06:52:42.102Z,7.67
2019-05-10T06:55:12.113Z,6.95
2019-05-10T06:57:41.378Z,9.25
2019-05-10T07:00:11.517Z,6.67
2019-05-10T07:02:40.838Z,7.90
2019-05-10T07:05:10.114Z,7.05
2019-05-10T07:07:44.799Z,6.58
2019-05-10T07:10:18.318Z,8.68
2019-05-10T07:12:41.344Z,8.10
2019-05-10T07:15:10.801Z,8.05
2019-05-10T07:17:45.614Z,7.50
2019-05-10T07:20:12.662Z,9.53
2019-05-10T07:22:42.147Z,9.80
2019-05-10T07:25:11.709Z,7.78
2019-05-10T07:27:40.998Z,7.35
2019-05-10T07:30:10.256Z,7.58
2019-05-10T07:32:39.542Z,6.33
2019-05-10T07:35:08.890Z,7.65
2019-05-10T07:37:38.264Z,8.08
2019-05-10T07:40:07.595Z,6.97
2019-05-10T07:42:39.784Z,9.15
2019-05-10T07:45:07.965Z,7.08
2019-05-10T07:47:37.322Z,7.10
2019-05-10T07:50:09.760Z,7.17
2019-05-10T07:52:43.540Z,6.12
2019-05-10T07:55:10.577Z,7.35
2019-05-10T07:57:39.780Z,5.25
2019-05-10T08:00:09.285Z,5.90
2019-05-10T08:02:38.520Z,5.78
2019-05-10T08:05:11.091Z,7.72
2019-05-10T08:07:39.053Z,6.03
2019-05-10T08:10:09.376Z,5.90
2019-05-10T08:12:41.543Z,5.60
2019-05-10T08:15:09.788Z,6.25
2019-05-10T08:17:43.201Z,6.45
2019-05-10T08:20:22.165Z,8.23
2019-05-10T08:22:44.531Z,7.55
2019-05-10T08:25:12.618Z,6.12
2019-05-10T08:27:50.285Z,6.08
2019-05-10T08:30:25.568Z,5.97
2019-05-10T08:32:46.449Z,5.70
2019-05-10T08:35:17.175Z,5.78
2019-05-10T08:37:46.738Z,6.90
2019-05-10T08:40:19.721Z,5.67
2019-05-10T08:42:54.271Z,5.30
2019-05-10T08:45:18.067Z,5.53
2019-05-10T08:47:47.299Z,7.45
2019-05-10T08:50:34.570Z,4.72
2019-05-10T08:52:47.652Z,5.15
2019-05-10T08:55:16.919Z,5.20
2019-05-10T08:57:49.218Z,6.20
2019-05-10T09:00:17.044Z,6.05
2019-05-10T09:02:46.303Z,5.78
2019-05-10T09:05:28.940Z,5.80
2019-05-10T09:07:54.568Z,8.70
2019-05-10T09:10:23.958Z,6.65
2019-05-10T09:12:57.886Z,6.87
2019-05-10T09:15:24.089Z,6.78
2019-05-10T09:17:53.329Z,4.95
2019-05-10T09:20:26.402Z,6.47
2019-05-10T09:22:53.468Z,5.42
2019-05-10T09:25:29.309Z,5.50
2019-05-10T09:27:53.924Z,4.33
2019-05-10T09:30:32.436Z,6.00
2019-05-10T09:33:08.449Z,5.08
2019-05-10T09:35:33.056Z,4.35
2019-05-10T09:38:02.357Z,5.00
2019-05-10T09:40:32.768Z,6.30
2019-05-10T09:43:05.182Z,5.10
2019-05-10T09:45:34.465Z,6.08
2019-05-10T09:48:03.787Z,8.08
2019-05-10T09:50:41.454Z,6.35
2019-05-10T09:53:04.096Z,7.17
2019-05-10T09:55:33.531Z,7.42
2019-05-10T09:58:03.741Z,7.78
2019-05-10T10:00:34.174Z,6.90
2019-05-10T10:03:03.405Z,8.53
2019-05-10T10:05:32.752Z,8.63
2019-05-10T10:08:03.620Z,6.50
2019-05-10T10:10:34.002Z,6.80
2019-05-10T10:13:08.394Z,6.50
2019-05-10T10:15:34.474Z,6.55
2019-05-10T10:18:03.929Z,6.70
2019-05-10T10:20:35.864Z,6.70
2019-05-10T10:23:07.289Z,8.88
2019-05-10T10:25:40.470Z,6.55
2019-05-10T10:28:16.458Z,5.05
2019-05-10T10:30:38.383Z,6.83
2019-05-10T10:33:11.763Z,4.12
2019-05-10T10:35:39.349Z,5.00
2019-05-10T10:38:08.758Z,7.08
2019-05-10T10:40:44.287Z,4.90
2019-05-10T10:43:08.872Z,5.22
2019-05-10T10:45:38.139Z,4.97
2019-05-10T10:48:12.762Z,4.90
2019-05-10T10:50:44.195Z,5.28
2019-05-10T10:53:10.803Z,5.37
2019-05-10T10:55:40.446Z,4.40
2019-05-10T10:58:09.823Z,4.47
2019-05-10T11:00:39.386Z,5.12
2019-05-10T11:03:09.055Z,5.95
2019-05-10T11:05:38.310Z,5.22
2019-05-10T11:08:07.672Z,4.65
2019-05-10T11:10:37.061Z,3.62
2019-05-10T11:13:12.125Z,4.10
2019-05-10T11:15:37.309Z,2.95
2019-05-10T11:18:06.611Z,5.10
2019-05-10T11:20:35.945Z,4.42
2019-05-10T11:23:05.195Z,6.00
2019-05-10T11:25:35.744Z,4.08
2019-05-10T11:28:04.991Z,5.10
2019-05-10T11:30:34.297Z,4.10
2019-05-10T11:33:03.857Z,4.62
2019-05-10T11:35:34.553Z,4.37
2019-05-10T11:38:06.607Z,3.90
2019-05-10T11:40:35.329Z,4.47
2019-05-10T11:43:04.832Z,6.87
2019-05-10T11:45:35.241Z,4.00
2019-05-10T11:48:06.562Z,3.70
2019-05-10T11:50:35.903Z,4.83
2019-05-10T11:53:06.782Z,5.55
2019-05-10T11:55:40.127Z,4.65
2019-05-10T11:58:12.287Z,3.65
2019-05-10T12:00:41.174Z,3.98
2019-05-10T12:03:15.001Z,4.33
2019-05-10T12:05:42.580Z,5.03
2019-05-10T12:08:12.965Z,5.10
2019-05-10T12:10:52.630Z,4.20
2019-05-10T12:13:19.371Z,4.50
2019-05-10T12:15:44.530Z,4.17
2019-05-10T12:18:14.875Z,4.45
2019-05-10T12:23:23.135Z,6.05
2019-05-10T12:26:27.034Z,5.17
2019-05-10T12:26:50.504Z,5.03
2019-05-10T12:28:24.455Z,5.83
2019-05-10T12:30:51.146Z,4.85
2019-05-10T12:33:25.081Z,5.03
2019-05-10T12:35:51.573Z,4.55
2019-05-10T12:38:23.723Z,5.22
2019-05-10T12:40:51.736Z,4.42
2019-05-10T12:43:22.106Z,5.00
2019-05-10T12:45:51.902Z,3.62
2019-05-10T12:48:23.463Z,4.05
2019-05-10T12:50:55.263Z,5.65
2019-05-10T12:53:23.174Z,3.83
2019-05-10T12:55:52.416Z,3.35
2019-05-10T12:58:21.654Z,7.35
2019-05-10T13:00:52.753Z,5.05
2019-05-10T13:03:25.464Z,4.20
2019-05-10T13:05:53.586Z,4.80
2019-05-10T13:08:23.098Z,7.00
2019-05-10T13:10:52.349Z,5.92
2019-05-10T13:13:23.709Z,6.85
2019-05-10T13:15:52.574Z,5.05
2019-05-10T13:18:23.281Z,4.08
2019-05-10T13:20:52.908Z,4.70
2019-05-10T13:23:22.170Z,7.08
2019-05-10T13:25:51.449Z,5.45
2019-05-10T13:28:20.763Z,5.47
2019-05-10T13:30:50.017Z,5.70
2019-05-10T13:33:28.587Z,6.20
2019-05-10T13:35:50.933Z,5.58
2019-05-10T13:38:21.098Z,6.30
2019-05-10T13:40:51.495Z,5.33
2019-05-10T13:43:26.577Z,6.62
2019-05-10T13:45:51.706Z,6.03
2019-05-10T13:48:25.568Z,6.35
2019-05-10T13:50:51.926Z,6.50
2019-05-10T13:53:23.205Z,6.05
2019-05-10T13:55:52.146Z,5.97
2019-05-10T13:58:21.377Z,5.97
2019-05-10T14:00:50.681Z,5.53
2019-05-10T14:03:20.953Z,7.05
2019-05-10T14:05:50.228Z,4.90
2019-05-10T14:08:19.520Z,5.80
2019-05-10T14:10:49.704Z,6.83
2019-05-10T14:13:19.340Z,7.03
2019-05-10T14:15:48.667Z,7.20
2019-05-10T14:18:17.918Z,4.92
2019-05-10T14:20:47.205Z,6.72
2019-05-10T14:23:17.875Z,7.83
2019-05-10T14:25:47.370Z,6.78
2019-05-10T14:28:17.500Z,5.83
2019-05-10T14:30:56.662Z,6.47
2019-05-10T14:33:17.759Z,5.80
2019-05-10T14:35:46.984Z,7.00
2019-05-10T14:38:16.286Z,7.35
2019-05-10T14:40:45.549Z,8.98
2019-05-10T14:43:14.796Z,5.40
2019-05-10T14:45:44.734Z,7.72
2019-05-10T14:48:14.001Z,7.70
2019-05-10T14:50:46.422Z,8.05
2019-05-10T14:53:14.175Z,6.78
2019-05-10T14:55:43.416Z,5.35
2019-05-10T14:58:12.651Z,6.12
2019-05-10T15:00:41.980Z,5.87
2019-05-10T15:03:11.207Z,6.97
2019-05-10T15:05:40.609Z,6.58
2019-05-10T15:08:09.945Z,7.10
2019-05-10T15:10:40.145Z,6.42
2019-05-10T15:13:10.123Z,6.55
2019-05-10T15:15:39.379Z,6.85
2019-05-10T15:18:08.614Z,7.08
2019-05-10T15:20:37.884Z,7.37
2019-05-10T15:23:07.131Z,6.47
2019-05-10T15:25:36.461Z,6.15
2019-05-10T15:28:05.697Z,6.15
2019-05-10T15:30:39.377Z,6.85
2019-05-10T15:33:05.836Z,7.67
2019-05-10T15:35:35.100Z,5.60
2019-05-10T15:38:04.341Z,6.50
2019-05-10T15:40:38.555Z,5.60
2019-05-10T15:43:04.466Z,6.62
2019-05-10T15:45:33.736Z,5.67
2019-05-10T15:48:04.481Z,6.03
2019-05-10T15:50:38.606Z,8.38
2019-05-10T15:53:04.917Z,6.90
2019-05-10T15:55:34.225Z,5.97
2019-05-10T15:58:03.512Z,6.58
2019-05-10T16:00:39.083Z,5.67
2019-05-10T16:03:03.852Z,5.80
2019-05-10T16:05:43.157Z,6.33
2019-05-10T16:08:03.966Z,5.95
2019-05-10T16:10:39.560Z,5.50
2019-05-10T16:13:04.191Z,6.22
2019-05-10T16:15:33.515Z,6.78
2019-05-10T16:18:02.794Z,5.30
2019-05-10T16:20:37.074Z,5.65
2019-05-10T16:23:08.709Z,6.08
2019-05-10T16:25:41.806Z,7.90
2019-05-10T16:28:05.106Z,7.17
2019-05-10T16:30:36.455Z,5.37
2019-05-10T16:33:09.619Z,6.10
2019-05-10T16:35:38.999Z,6.58
2019-05-10T16:38:07.101Z,8.00
2019-05-10T16:40:36.332Z,5.03
2019-05-10T16:43:06.764Z,4.97
2019-05-10T16:45:36.628Z,8.08
2019-05-10T16:48:06.546Z,6.72
2019-05-10T16:50:36.239Z,24.37
2019-05-10T16:53:07.968Z,6.12
2019-05-10T16:55:40.995Z,6.05
2019-05-10T16:58:09.448Z,5.78
2019-05-10T17:00:40.774Z,6.85
2019-05-10T17:03:13.136Z,7.42
2019-05-10T17:05:52.683Z,6.35
2019-05-10T17:08:10.789Z,6.20
2019-05-10T17:10:40.030Z,6.55
2019-05-10T17:13:09.296Z,6.10
2019-05-10T17:15:39.733Z,5.67
2019-05-10T17:18:10.801Z,6.33
2019-05-10T17:20:40.346Z,5.40
2019-05-10T17:23:11.275Z,6.35
2019-05-10T17:25:42.214Z,6.62
2019-05-10T17:28:11.615Z,6.33
2019-05-10T17:30:44.601Z,5.15
2019-05-10T17:33:11.794Z,5.20
2019-05-10T17:35:42.178Z,5.65
2019-05-10T17:38:14.275Z,6.00
2019-05-10T17:40:47.571Z,7.87
2019-05-10T17:43:20.488Z,4.87
2019-05-10T17:45:45.943Z,5.00
2019-05-10T17:48:15.242Z,5.45
2019-05-10T17:50:45.719Z,4.90
2019-05-10T17:53:15.277Z,5.70
2019-05-10T17:55:49.284Z,5.58
2019-05-10T17:58:17.171Z,4.65
2019-05-10T18:00:46.850Z,5.78
2019-05-10T18:03:16.496Z,6.05
2019-05-10T18:05:46.586Z,5.20
2019-05-10T18:08:16.701Z,6.45
2019-05-10T18:10:45.942Z,5.78
2019-05-10T18:13:15.303Z,6.12
2019-05-10T18:15:44.547Z,4.42
2019-05-10T18:18:13.810Z,4.37
2019-05-10T18:20:44.488Z,4.87
2019-05-10T18:23:20.076Z,5.60
2019-05-10T18:25:45.083Z,5.80
2019-05-10T18:28:17.757Z,4.65
2019-05-10T18:30:45.257Z,6.97
2019-05-10T18:33:14.533Z,5.03
2019-05-10T18:35:47.369Z,5.90
2019-05-10T18:38:16.656Z,4.90
2019-05-10T18:40:45.948Z,5.60
2019-05-10T18:43:15.298Z,5.25
2019-05-10T18:45:44.563Z,4.95
2019-05-10T18:48:13.874Z,5.05
2019-05-10T18:50:45.127Z,4.60
2019-05-10T18:53:14.566Z,5.15
2019-05-10T18:55:44.596Z,6.30
2019-05-10T18:58:13.858Z,6.12
2019-05-10T19:00:43.230Z,5.47
2019-05-10T19:03:12.792Z,4.92
2019-05-10T19:05:42.108Z,4.25
2019-05-10T19:08:11.346Z,5.72
2019-05-10T19:10:40.691Z,5.90
2019-05-10T19:13:10.320Z,6.45
2019-05-10T19:15:39.722Z,6.80
2019-05-10T19:18:08.987Z,5.92
2019-05-10T19:20:38.252Z,8.18
2019-05-10T19:23:07.494Z,5.95
2019-05-10T19:25:37.724Z,7.40
2019-05-10T19:28:07.320Z,5.72
2019-05-10T19:30:36.587Z,6.37
2019-05-10T19:33:05.840Z,5.55
2019-05-10T19:35:36.319Z,7.47
2019-05-10T19:38:06.027Z,5.60
2019-05-10T19:40:35.340Z,5.90
2019-05-10T19:43:04.792Z,5.58
2019-05-10T19:45:34.035Z,5.50
2019-05-10T19:48:05.899Z,5.72
2019-05-10T19:50:34.183Z,5.55
2019-05-10T19:53:04.143Z,5.95
2019-05-10T19:55:34.419Z,6.60
2019-05-10T19:58:03.685Z,6.25
2019-05-10T20:00:32.949Z,5.08
2019-05-10T20:03:02.301Z,5.50
2019-05-10T20:05:31.565Z,4.80
2019-05-10T20:08:00.800Z,6.40
2019-05-10T20:10:30.034Z,5.33
2019-05-10T20:12:59.301Z,6.95
2019-05-10T20:15:28.547Z,5.55
2019-05-10T20:17:57.781Z,8.70
2019-05-10T20:20:27.036Z,6.62
2019-05-10T20:22:56.486Z,7.75
2019-05-10T20:25:26.729Z,5.35
2019-05-10T20:27:55.965Z,5.00
2019-05-10T20:30:25.317Z,4.83
2019-05-10T20:32:54.549Z,8.38
2019-05-10T20:35:23.780Z,5.25
2019-05-10T20:38:01.561Z,5.42
2019-05-10T20:40:23.924Z,6.45
2019-05-10T20:42:53.183Z,6.80
2019-05-10T20:45:22.450Z,5.47
2019-05-10T20:47:51.678Z,5.78
2019-05-10T20:50:21.388Z,5.37
2019-05-10T20:52:50.610Z,6.28
2019-05-10T20:55:19.875Z,5.90
2019-05-10T20:57:49.104Z,4.30
2019-05-10T21:00:18.520Z,6.20
2019-05-10T21:02:47.825Z,5.03
2019-05-10T21:05:17.070Z,5.83
2019-05-10T21:07:46.346Z,6.53
2019-05-10T21:10:15.582Z,5.80
2019-05-10T21:12:44.957Z,5.90
2019-05-10T21:15:14.211Z,4.53
2019-05-10T21:17:43.503Z,5.03
2019-05-10T21:20:12.951Z,6.00
2019-05-10T21:22:42.636Z,4.92
2019-05-10T21:25:11.997Z,5.45
2019-05-10T21:27:41.292Z,5.72
2019-05-10T21:30:10.629Z,6.75
2019-05-10T21:32:40.225Z,5.65
2019-05-10T21:35:09.484Z,5.83
2019-05-10T21:37:38.716Z,7.12
2019-05-10T21:40:08.172Z,5.20
2019-05-10T21:42:37.443Z,7.50
2019-05-10T21:45:06.861Z,6.40
2019-05-10T21:47:49.534Z,6.12
2019-05-10T21:50:07.004Z,6.53
2019-05-10T21:52:36.318Z,5.70
2019-05-10T21:55:05.651Z,5.75
2019-05-10T21:57:34.880Z,6.15
2019-05-10T22:00:05.641Z,6.83
2019-05-10T22:02:36.416Z,6.60
2019-05-10T22:05:06.241Z,4.80
2019-05-10T22:07:35.519Z,6.30
2019-05-10T22:10:06.558Z,5.62
2019-05-10T22:12:36.223Z,5.12
2019-05-10T22:15:06.249Z,5.78
2019-05-10T22:17:35.699Z,6.25
2019-05-10T22:20:06.399Z,6.50
2019-05-10T22:22:35.643Z,4.85
2019-05-10T22:25:07.827Z,7.70
2019-05-10T22:27:37.307Z,5.83
2019-05-10T22:30:07.215Z,6.40
2019-05-10T22:32:36.490Z,5.28
2019-05-10T22:35:06.463Z,5.85
2019-05-10T22:37:35.770Z,5.60
2019-05-10T22:40:05.439Z,5.85
2019-05-10T22:42:34.682Z,5.83
2019-05-10T22:45:04.860Z,6.85
2019-05-10T22:47:34.106Z,5.37
2019-05-10T22:50:04.712Z,4.42
2019-05-10T22:52:33.984Z,5.65
2019-05-10T22:55:03.223Z,6.90
2019-05-10T22:57:32.525Z,6.67
2019-05-10T23:00:01.764Z,6.58
2019-05-10T23:02:32.576Z,5.17
2019-05-10T23:05:01.853Z,6.97
2019-05-10T23:07:31.312Z,6.30
2019-05-10T23:10:00.591Z,5.67
2019-05-10T23:12:29.865Z,6.25
2019-05-10T23:14:59.139Z,7.10
2019-05-10T23:17:28.459Z,4.72
2019-05-10T23:19:57.785Z,5.12
2019-05-10T23:22:27.060Z,6.80
2019-05-10T23:24:56.323Z,7.37
2019-05-10T23:27:25.571Z,5.97
2019-05-10T23:29:54.835Z,6.65
2019-05-10T23:32:25.235Z,5.95
2019-05-10T23:34:54.548Z,7.78
2019-05-10T23:37:23.786Z,6.47
2019-05-10T23:39:53.059Z,6.92
2019-05-10T23:42:22.379Z,7.83
2019-05-10T23:44:51.644Z,5.80
2019-05-10T23:47:20.941Z,6.95
2019-05-10T23:49:50.202Z,6.72
2019-05-10T23:52:19.463Z,7.00
2019-05-10T23:54:48.847Z,6.17
2019-05-10T23:57:18.086Z,6.25
2019-05-10T23:59:47.366Z,5.17
